Time;durP1;ratioP1;P1;durP2;ratioP2;P2;SDS_P1;SDS_P2;PMS_P1;PMS_P2;Temp;Humidity;BMP_temperature;BMP_pressure;BME280_temperature;BME280_humidity;BME280_pressure;Samples;Min_cycle;Max_cycle;Signal;HPM_P1;HPM_P2
2024/03/11 09:00:17;;;;;;;;;;;;;;;6.66;100.00;98337.25;5012968;28;19967;-83
2024/03/11 09:02:44;;;;;;;;;;;;;;;6.69;100.00;98339.72;5011512;28;19921;-83
2024/03/11 09:05:12;;;;;;;;;;;;;;;6.66;100.00;98347.78;5012226;28;20381;-84
2024/03/11 09:07:40;;;;;;;;;;;;;;;6.59;100.00;98349.03;5012481;28;19917;-84
2024/03/11 09:10:07;;;;;;;;;;;;;;;6.60;100.00;98369.13;5011489;28;19928;-83
2024/03/11 09:12:32;;;;;;;;;;;;;;;6.66;100.00;98360.94;4993517;28;19922;-84
2024/03/11 09:14:59;;;;;;;;;;;;;;;6.68;100.00;98366.13;5012334;28;19921;-88
2024/03/11 09:17:26;;;;;;;;;;;;;;;6.68;100.00;98366.97;5011731;28;19944;-93
2024/03/11 09:19:54;;;;;;;;;;;;;;;6.70;100.00;98370.41;4994386;28;19913;-83
2024/03/11 09:22:20;;;;;;;;;;;;;;;6.68;100.00;98369.59;5011981;28;19944;-85
2024/03/11 09:24:46;;;;;;;;;;;;;;;6.71;100.00;98373.88;5011452;28;19921;-84
2024/03/11 09:27:11;;;;;;;;;;;;;;;6.69;100.00;98381.84;4993051;28;19943;-86
2024/03/11 09:29:37;;;;;;;;;;;;;;;6.71;100.00;98379.97;5012160;28;20339;-88
2024/03/11 09:32:02;;;;;;;;;;;;;;;6.68;100.00;98385.41;5011900;28;20008;-84
2024/03/11 09:34:29;;;;;;;;;;;;;;;6.76;100.00;98379.75;4994484;28;20023;-87
2024/03/11 09:36:55;;;;;;;;;;;;;;;6.73;100.00;98385.19;5012081;28;20284;-86
2024/03/11 09:39:21;;;;;;;;;;;;;;;6.75;100.00;98390.38;5011709;28;19953;-85
2024/03/11 09:41:48;;;;;;;;;;;;;;;6.72;100.00;98386.97;4993023;28;19964;-86
2024/03/11 09:44:15;;;;;;;;;;;;;;;6.73;100.00;98398.34;5011754;28;19925;-90
2024/03/11 09:47:00;;;;;;;;;;;;;;;6.76;100.00;98392.09;4994423;28;19924;-90
2024/03/11 09:49:26;;;;;;;;;;;;;;;6.78;100.00;98398.13;4993444;28;19933;-89
2024/03/11 09:51:53;;;;;;;;;;;;;;;6.78;100.00;98398.13;4994121;28;20397;-87
2024/03/11 09:54:20;;;;;;;;;;;;;;;6.78;100.00;98403.38;5010909;28;20974;-90
2024/03/11 09:56:47;;;;;;;;;;;;;;;6.78;100.00;98400.75;4992989;28;20275;-86
2024/03/11 09:59:20;;;;;;;;;;;;;;;6.77;100.00;98405.16;4997936;28;20508;-93
2024/03/11 10:01:52;;;;;;;;;;;;;;;6.83;100.00;98410.13;5007227;28;19922;-88
2024/03/11 10:04:20;;;;;;;;;;;;;;;6.86;100.00;98409.13;5014998;28;20419;-86
2024/03/11 10:06:56;;;;;;;;;;;;;;;6.84;100.00;98409.19;4997708;28;20280;-87
2024/03/11 10:09:22;;;;;;;;;;;;;;;6.80;100.00;98414.72;5014945;28;19928;-89
2024/03/11 10:12:07;;;;;;;;;;;;;;;6.85;100.00;98413.53;5013704;28;20384;-88
2024/03/11 10:14:34;;;;;;;;;;;;;;;6.89;100.00;98416.88;5014761;28;20012;-88
2024/03/11 10:17:16;;;;;;;;;;;;;;;6.85;100.00;98423.22;5014196;28;19918;-89
2024/03/11 10:19:45;;;;;;;;;;;;;;;6.82;100.00;98418.13;5015247;28;19922;-84
2024/03/11 10:22:12;;;;;;;;;;;;;;;6.81;100.00;98422.53;5014806;28;19921;-87
2024/03/11 10:24:38;;;;;;;;;;;;;;;6.83;100.00;98422.44;4996939;28;19940;-90
2024/03/11 10:27:17;;;;;;;;;;;;;;;6.86;100.00;98420.53;5013607;28;20289;-90
2024/03/11 10:29:42;;;;;;;;;;;;;;;6.91;100.00;98438.72;5014993;28;19928;-85
2024/03/11 10:32:07;;;;;;;;;;;;;;;6.91;100.00;98430.84;4996367;28;19918;-87
2024/03/11 10:34:34;;;;;;;;;;;;;;;6.89;100.00;98430.91;5013601;28;20356;-84
2024/03/11 10:37:02;;;;;;;;;;;;;;;6.93;100.00;98434.22;5014478;28;19918;-85
2024/03/11 10:39:37;;;;;;;;;;;;;;;6.94;100.00;98440.34;4996663;28;19960;-84
2024/03/11 10:42:02;;;;;;;;;;;;;;;6.89;100.00;98432.66;5012383;28;19928;-84
2024/03/11 10:44:40;;;;;;;;;;;;;;;6.90;100.00;98437.84;5014267;28;19928;-85
2024/03/11 10:47:14;;;;;;;;;;;;;;;6.88;100.00;98449.41;4996265;28;20157;-84
2024/03/11 10:49:40;;;;;;;;;;;;;;;6.88;100.00;98450.25;5014075;28;19917;-87
2024/03/11 10:52:09;;;;;;;;;;;;;;;6.88;100.00;98457.31;5014120;28;20379;-85
2024/03/11 10:54:38;;;;;;;;;;;;;;;6.85;100.00;98450.41;4996095;28;19928;-84
2024/03/11 10:57:11;;;;;;;;;;;;;;;6.85;100.00;98450.41;5012198;28;19921;-87
2024/03/11 10:59:38;;;;;;;;;;;;;;;6.91;100.00;98465.06;5005605;28;20281;-85
2024/03/11 11:02:04;;;;;;;;;;;;;;;6.92;100.00;98464.13;4994341;28;19924;-85
2024/03/11 11:04:33;;;;;;;;;;;;;;;6.91;100.00;98465.06;4994506;28;19953;-89
2024/03/11 11:06:59;;;;;;;;;;;;;;;6.97;100.00;98464.72;4994335;28;19921;-83
2024/03/11 11:09:27;;;;;;;;;;;;;;;6.97;100.00;98464.72;4976464;28;20485;-88
2024/03/11 11:11:54;;;;;;;;;;;;;;;6.95;100.00;98463.13;4993348;28;19945;-84
2024/03/11 11:14:20;;;;;;;;;;;;;;;6.96;100.00;98463.06;4976622;28;19917;-86
2024/03/11 11:16:45;;;;;;;;;;;;;;;6.94;100.00;98467.53;4994209;28;19933;-83
2024/03/11 11:19:19;;;;;;;;;;;;;;;6.96;100.00;98467.47;4994048;28;19917;-89
2024/03/11 11:21:45;;;;;;;;;;;;;;;6.93;100.00;98468.47;4976065;28;20357;-88
2024/03/11 11:24:26;;;;;;;;;;;;;;;6.94;100.00;98470.19;4993827;28;19918;-88
2024/03/11 11:26:52;;;;;;;;;;;;;;;6.93;100.00;98472.88;4993074;28;20020;-87
2024/03/11 11:29:24;;;;;;;;;;;;;;;6.94;100.00;98472.81;4994042;28;20340;-85
2024/03/11 11:31:58;;;;;;;;;;;;;;;6.97;100.00;98472.63;4993553;28;19922;-84
2024/03/11 11:34:44;;;;;;;;;;;;;;;6.96;100.00;98476.22;4992746;28;20347;-84
2024/03/11 11:37:09;;;;;;;;;;;;;;;6.95;100.00;98477.13;4993644;28;19922;-83
2024/03/11 11:39:35;;;;;;;;;;;;;;;6.97;100.00;98485.81;4976779;28;20262;-83
2024/03/11 11:42:00;;;;;;;;;;;;;;;6.96;100.00;98489.38;4992808;28;19921;-85
2024/03/11 11:44:26;;;;;;;;;;;;;;;6.99;100.00;98489.25;4993884;28;19929;-84
2024/03/11 11:46:52;;;;;;;;;;;;;;;6.97;100.00;98490.22;4993889;28;19918;-87
2024/03/11 11:49:18;;;;;;;;;;;;;;;6.97;100.00;98488.44;4993750;28;20399;-83
2024/03/11 11:51:47;;;;;;;;;;;;;;;6.94;100.00;98488.63;4993477;28;19918;-83
2024/03/11 11:54:29;;;;;;;;;;;;;;;6.97;100.00;98491.06;4993398;28;20317;-85
2024/03/11 11:57:11;;;;;;;;;;;;;;;6.99;100.00;98486.59;4991776;28;19921;-83
2024/03/11 11:59:40;;;;;;;;;;;;;;;6.99;100.00;98485.72;5001676;28;20284;-83
2024/03/11 12:02:15;;;;;;;;;;;;;;;7.01;100.00;98481.25;5005206;28;20172;-83
2024/03/11 12:04:47;;;;;;;;;;;;;;;7.04;100.00;98491.66;5012486;28;19976;-84
2024/03/11 12:07:13;;;;;;;;;;;;;;;6.99;100.00;98491.00;5012790;28;19929;-84
2024/03/11 12:09:46;;;;;;;;;;;;;;;7.02;100.00;98494.34;5012876;28;19929;-83
2024/03/11 12:12:14;;;;;;;;;;;;;;;7.03;100.00;98493.41;5011576;28;20288;-83
2024/03/11 12:14:50;;;;;;;;;;;;;;;7.03;100.00;98489.94;5012120;28;20040;-87
2024/03/11 12:17:16;;;;;;;;;;;;;;;7.02;100.00;98494.34;5012772;28;19925;-83
2024/03/11 12:19:42;;;;;;;;;;;;;;;7.03;100.00;98496.03;5012254;28;20427;-84
2024/03/11 12:22:10;;;;;;;;;;;;;;;7.09;100.00;98495.75;5012927;28;19917;-90
2024/03/11 12:24:53;;;;;;;;;;;;;;;7.05;100.00;98498.59;4995580;28;19918;-95
2024/03/11 12:27:20;;;;;;;;;;;;;;;7.04;100.00;98495.13;5011574;28;19917;-87
2024/03/11 12:29:46;;;;;;;;;;;;;;;7.04;100.00;98497.75;5012952;28;19921;-87
2024/03/11 12:32:11;;;;;;;;;;;;;;;7.04;100.00;98497.75;5013346;28;20450;-91
2024/03/11 12:34:37;;;;;;;;;;;;;;;7.08;100.00;98488.78;4995571;28;20008;-87
2024/03/11 12:37:04;;;;;;;;;;;;;;;7.13;100.00;98503.50;5012599;28;20430;-84
2024/03/11 12:39:34;;;;;;;;;;;;;;;7.09;100.00;98501.00;5012385;28;19917;-85
2024/03/11 12:42:00;;;;;;;;;;;;;;;7.10;100.00;98494.00;5010352;28;19924;-89
2024/03/11 12:44:26;;;;;;;;;;;;;;;7.09;100.00;98495.75;5012392;28;19929;-88
2024/03/11 12:46:55;;;;;;;;;;;;;;;7.09;100.00;98494.91;5012212;28;19928;-89
2024/03/11 12:49:22;;;;;;;;;;;;;;;7.13;100.00;98493.81;5012324;28;19989;-88
2024/03/11 12:51:48;;;;;;;;;;;;;;;7.11;100.00;98493.03;5012220;28;19971;-91
2024/03/11 12:54:13;;;;;;;;;;;;;;;7.15;100.00;98493.72;5012372;28;20311;-86
2024/03/11 12:56:39;;;;;;;;;;;;;;;7.15;100.00;98491.09;5010943;28;19936;-89
2024/03/11 12:59:13;;;;;;;;;;;;;;;7.13;100.00;98493.81;4994692;28;19921;-83
2024/03/11 13:01:41;;;;;;;;;;;;;;;7.12;100.00;98493.91;5011971;28;19925;-83
2024/03/11 13:04:17;;;;;;;;;;;;;;;7.15;100.00;98496.38;5012173;28;19921;-87
2024/03/11 13:06:43;;;;;;;;;;;;;;;7.17;100.00;98494.53;4993876;28;20398;-88
2024/03/11 13:09:23;;;;;;;;;;;;;;;7.16;100.00;98492.81;5011891;28;19971;-87
2024/03/11 13:11:52;;;;;;;;;;;;;;;7.18;100.00;98491.81;5010710;28;20028;-86
2024/03/11 13:14:18;;;;;;;;;;;;;;;7.15;100.00;98499.88;4994261;28;19913;-86
2024/03/11 13:16:43;;;;;;;;;;;;;;;7.12;100.00;98505.28;5012279;28;20293;-89
2024/03/11 13:19:12;;;;;;;;;;;;;;;7.22;100.00;98500.41;5012117;28;19917;-89
2024/03/11 13:21:38;;;;;;;;;;;;;;;7.19;100.00;98500.56;4994295;28;19921;-87
2024/03/11 13:24:03;;;;;;;;;;;;;;;7.24;100.00;98506.47;5012491;28;20020;-91
2024/03/11 13:26:29;;;;;;;;;;;;;;;7.24;100.00;98509.09;4994536;28;19917;-88
2024/03/11 13:28:54;;;;;;;;;;;;;;;7.28;100.00;98506.22;4993732;28;19922;-85
2024/03/11 13:31:20;;;;;;;;;;;;;;;7.25;100.00;98510.81;5013043;28;19963;-88
2024/03/11 13:33:46;;;;;;;;;;;;;;;7.24;100.00;98511.72;4998200;28;19971;-91
2024/03/11 13:36:11;;;;;;;;;;;;;;;7.23;100.00;98507.41;4998198;28;19957;-84
2024/03/11 13:38:37;;;;;;;;;;;;;;;7.22;100.00;98506.53;5015735;28;19921;-87
2024/03/11 13:41:02;;;;;;;;;;;;;;;7.26;100.00;98515.16;5015553;28;20459;-89
2024/03/11 13:43:27;;;;;;;;;;;;;;;7.22;100.00;98510.97;5014156;28;19917;-88
2024/03/11 13:45:54;;;;;;;;;;;;;;;7.20;100.00;98507.56;5015499;28;20285;-91
2024/03/11 13:48:19;;;;;;;;;;;;;;;7.23;100.00;98523.22;5015469;28;20031;-89
2024/03/11 13:50:47;;;;;;;;;;;;;;;7.24;100.00;98524.91;5014076;28;20012;-87
2024/03/11 13:53:12;;;;;;;;;;;;;;;7.23;100.00;98512.69;5015916;28;19961;-91
2024/03/11 13:55:38;;;;;;;;;;;;;;;7.23;100.00;98528.47;4998124;28;20351;-89
2024/03/11 13:58:03;;;;;;;;;;;;;;;7.28;100.00;98527.31;5014311;28;19924;-96
2024/03/11 14:00:29;;;;;;;;;;;;;;;7.23;100.00;98539.03;5001314;28;20337;-90
2024/03/11 14:02:56;;;;;;;;;;;;;;;7.24;100.00;98538.06;4996642;28;20360;-90
2024/03/11 14:05:24;;;;;;;;;;;;;;;7.19;100.00;98537.44;4996196;28;19929;-87
2024/03/11 14:07:50;;;;;;;;;;;;;;;7.28;100.00;98548.38;4995967;28;19922;-93
2024/03/11 14:10:15;;;;;;;;;;;;;;;7.25;100.00;98552.97;4995812;28;19981;-90
2024/03/11 14:12:42;;;;;;;;;;;;;;;7.26;100.00;98555.53;4994664;28;19922;-92
2024/03/11 14:15:10;;;;;;;;;;;;;;;7.25;100.00;98548.53;4996087;28;19976;-91
2024/03/11 14:17:39;;;;;;;;;;;;;;;7.24;100.00;98559.16;4996609;28;20369;-86
2024/03/11 14:20:06;;;;;;;;;;;;;;;7.21;100.00;98557.53;4995455;28;19925;-90
2024/03/11 14:22:31;;;;;;;;;;;;;;;7.20;100.00;98560.25;4995671;28;19932;-85
2024/03/11 14:24:57;;;;;;;;;;;;;;;7.28;100.00;98555.44;4995247;28;19917;-91
2024/03/11 14:27:23;;;;;;;;;;;;;;;7.22;100.00;98566.28;4993937;28;20393;-92
2024/03/11 14:29:48;;;;;;;;;;;;;;;7.24;100.00;98574.97;4977799;28;20596;-91
2024/03/11 14:32:14;;;;;;;;;;;;;;;7.24;100.00;98560.03;4977753;28;19917;-90
2024/03/11 14:34:41;;;;;;;;;;;;;;;7.24;100.00;98572.31;4995195;28;19929;-87
2024/03/11 14:37:06;;;;;;;;;;;;;;;7.24;100.00;98567.94;4977381;28;19924;-93
2024/03/11 14:39:32;;;;;;;;;;;;;;;7.26;100.00;98559.94;4977465;28;19918;-91
2024/03/11 14:42:00;;;;;;;;;;;;;;;7.23;100.00;98566.22;4993762;28;19917;-92
2024/03/11 14:44:25;;;;;;;;;;;;;;;7.26;100.00;98565.22;4994315;28;20020;-89
2024/03/11 14:46:51;;;;;;;;;;;;;;;7.18;100.00;98562.06;4977558;28;20016;-91
2024/03/11 14:49:16;;;;;;;;;;;;;;;7.23;100.00;98568.00;4994999;28;19917;-91
2024/03/11 14:51:41;;;;;;;;;;;;;;;7.23;100.00;98565.38;4994871;28;20423;-88
2024/03/11 14:54:25;;;;;;;;;;;;;;;7.22;100.00;98569.75;4976952;28;20280;-92
2024/03/11 14:56:51;;;;;;;;;;;;;;;7.26;100.00;98573.13;4992538;28;19974;-89
2024/03/11 14:59:21;;;;;;;;;;;;;;;7.25;100.00;98568.78;5000624;28;19989;-88
2024/03/11 15:01:46;;;;;;;;;;;;;;;7.22;100.00;98576.81;4996716;28;20292;-93
2024/03/11 15:04:11;;;;;;;;;;;;;;;7.19;100.00;98576.97;5014806;28;19922;-85
2024/03/11 15:06:39;;;;;;;;;;;;;;;7.21;100.00;98581.25;5014422;28;19918;-87
2024/03/11 15:09:04;;;;;;;;;;;;;;;7.22;100.00;98582.09;4996231;28;20021;-87
2024/03/11 15:11:33;;;;;;;;;;;;;;;7.20;100.00;98591.84;5013750;28;19983;-90
2024/03/11 15:14:00;;;;;;;;;;;;;;;7.24;100.00;98582.88;4996355;28;20296;-88
2024/03/11 15:16:27;;;;;;;;;;;;;;;7.26;100.00;98594.22;4996851;28;19921;-89
2024/03/11 15:18:53;;;;;;;;;;;;;;;7.23;100.00;98589.09;4996175;28;20289;-84
2024/03/11 15:21:19;;;;;;;;;;;;;;;7.21;100.00;98598.81;5014112;28;19920;-94
2024/03/11 15:23:44;;;;;;;;;;;;;;;7.23;100.00;98592.56;5014192;28;20316;-92
2024/03/11 15:26:14;;;;;;;;;;;;;;;7.24;100.00;98598.66;5013701;28;20004;-87
2024/03/11 15:28:39;;;;;;;;;;;;;;;7.21;100.00;98599.69;5013070;28;19917;-90
2024/03/11 15:31:08;;;;;;;;;;;;;;;7.23;100.00;98603.09;4996522;28;20427;-89
2024/03/11 15:33:34;;;;;;;;;;;;;;;7.21;100.00;98604.09;5013335;28;19924;-90
2024/03/11 15:35:59;;;;;;;;;;;;;;;7.24;100.00;98599.53;5013276;28;19917;-92
2024/03/11 15:38:26;;;;;;;;;;;;;;;7.20;100.00;98612.94;4996151;28;19944;-89
2024/03/11 15:40:52;;;;;;;;;;;;;;;7.26;100.00;98615.28;5013805;28;19921;-89
2024/03/11 15:43:17;;;;;;;;;;;;;;;7.25;100.00;98610.94;4995243;28;20250;-87
2024/03/11 15:45:44;;;;;;;;;;;;;;;7.24;100.00;98615.34;5014037;28;20377;-92
2024/03/11 15:48:09;;;;;;;;;;;;;;;7.26;100.00;98617.91;5018328;28;19918;-90
2024/03/11 15:50:34;;;;;;;;;;;;;;;7.27;100.00;98619.59;5016009;28;19933;-90
2024/03/11 15:53:00;;;;;;;;;;;;;;;7.25;100.00;98632.84;4996944;28;19917;-89
2024/03/11 15:55:26;;;;;;;;;;;;;;;7.27;100.00;98635.41;5013886;28;19925;-89
2024/03/11 15:57:51;;;;;;;;;;;;;;;7.33;100.00;98634.28;4995452;28;20387;-87
2024/03/11 16:00:17;;;;;;;;;;;;;;;7.26;100.00;98639.00;4995769;28;19933;-86
2024/03/11 16:02:46;;;;;;;;;;;;;;;7.25;100.00;98642.53;5013870;28;19918;-89
2024/03/11 16:05:15;;;;;;;;;;;;;;;7.31;100.00;98646.66;5014480;28;19914;-87
2024/03/11 16:07:45;;;;;;;;;;;;;;;7.26;100.00;98649.53;5016318;28;19922;-85
2024/03/11 16:10:14;;;;;;;;;;;;;;;7.24;100.00;98646.09;5021467;28;19918;-85
2024/03/11 16:12:54;;;;;;;;;;;;;;;7.25;100.00;98647.81;5020589;28;19924;-84
2024/03/11 16:15:23;;;;;;;;;;;;;;;7.23;100.00;98649.69;5015170;28;20374;-85
2024/03/11 16:17:49;;;;;;;;;;;;;;;7.27;100.00;98653.84;5015588;28;19917;-90
2024/03/11 16:20:24;;;;;;;;;;;;;;;11.17;100.00;98644.81;5012465;28;19923;-85
2024/03/11 16:22:53;;;;;;;;;;;;;;;8.48;100.00;98636.44;5014296;28;19925;-91
2024/03/11 16:25:20;;;;;;;;;;;;;;;6.60;100.00;98656.03;4995437;28;19940;-93
2024/03/11 16:27:52;;;;;;;;;;;;;;;6.04;100.00;98662.84;5011008;28;19929;-90
2024/03/11 16:30:22;;;;;;;;;;;;;;;5.78;100.00;98669.16;4994123;28;19975;-87
2024/03/11 16:32:50;;;;;;;;;;;;;;;5.59;100.00;98662.00;5011742;28;20352;-92
2024/03/11 16:35:19;;;;;;;;;;;;;;;5.42;100.00;98664.47;4996012;28;19988;-86
2024/03/11 16:37:45;;;;;;;;;;;;;;;5.28;100.00;98660.63;5013136;28;19921;-87
2024/03/11 16:40:14;;;;;;;;;;;;;;;5.18;100.00;98664.50;5012745;28;19947;-93
2024/03/11 16:42:40;;;;;;;;;;;;;;;5.14;100.00;98670.81;5011680;28;19984;-88
2024/03/11 16:45:08;;;;;;;;;;;;;;;5.06;100.00;98673.72;5013756;28;20427;-94
2024/03/11 16:47:34;;;;;;;;;;;;;;;4.94;100.00;98678.56;5012757;28;19917;-89
2024/03/11 16:49:59;;;;;;;;;;;;;;;4.98;100.00;98677.53;5013014;28;19928;-93
2024/03/11 16:52:27;;;;;;;;;;;;;;;4.90;100.00;98685.72;5002168;28;20336;-93
2024/03/11 16:54:52;;;;;;;;;;;;;;;4.87;100.00;98689.31;5013274;28;19927;-85
2024/03/11 16:57:17;;;;;;;;;;;;;;;4.86;100.00;98686.72;5015138;28;20416;-90
2024/03/11 16:59:42;;;;;;;;;;;;;;;4.75;100.00;98687.13;4997129;28;19999;-94
2024/03/11 17:02:08;;;;;;;;;;;;;;;4.72;100.00;98689.84;5018244;28;19917;-94
2024/03/11 17:04:34;;;;;;;;;;;;;;;4.78;100.00;98696.66;5024589;28;19956;-85
2024/03/11 17:07:02;;;;;;;;;;;;;;;4.73;100.00;98699.44;5019068;28;20448;-96
2024/03/11 17:09:31;;;;;;;;;;;;;;;4.70;100.00;98702.19;5017810;28;19917;-83
2024/03/11 17:11:57;;;;;;;;;;;;;;;4.66;100.00;98713.69;5023856;28;19921;-83
2024/03/11 17:14:26;;;;;;;;;;;;;;;4.63;100.00;98716.44;5022849;28;19969;-94
2024/03/11 17:16:51;;;;;;;;;;;;;;;4.64;100.00;98726.00;5018067;28;19922;-86
2024/03/11 17:19:17;;;;;;;;;;;;;;;4.53;100.00;98732.50;5016810;28;19928;-92
2024/03/11 17:21:43;;;;;;;;;;;;;;;4.54;100.00;98741.22;5019240;28;19921;-84
2024/03/11 17:24:10;;;;;;;;;;;;;;;4.49;100.00;98737.91;5019166;28;19921;-84
2024/03/11 17:26:36;;;;;;;;;;;;;;;4.48;100.00;98746.69;5018930;28;20467;-96
2024/03/11 17:29:02;;;;;;;;;;;;;;;4.39;100.00;98750.50;5020809;28;19957;-88
2024/03/11 17:31:27;;;;;;;;;;;;;;;4.40;100.00;98752.19;5016847;28;19918;-85
2024/03/11 17:33:52;;;;;;;;;;;;;;;4.31;100.00;98755.16;5016051;28;19988;-82
2024/03/11 17:36:18;;;;;;;;;;;;;;;4.24;100.00;98758.88;5016733;28;19961;-90
2024/03/11 17:38:45;;;;;;;;;;;;;;;4.26;100.00;98759.66;5015740;28;19932;-85
2024/03/11 17:41:11;;;;;;;;;;;;;;;4.17;100.00;98761.69;5014924;28;19925;-87
2024/03/11 17:43:38;;;;;;;;;;;;;;;4.12;100.00;98768.88;5017177;28;19921;-93
2024/03/11 17:46:04;;;;;;;;;;;;;;;4.12;100.00;98768.88;5017793;28;20761;-83
2024/03/11 17:48:30;;;;;;;;;;;;;;;4.13;100.00;98767.09;5017154;28;19921;-89
2024/03/11 17:50:56;;;;;;;;;;;;;;;4.11;100.00;98779.41;5017846;28;20438;-89
2024/03/11 17:53:21;;;;;;;;;;;;;;;4.06;100.00;98770.81;5015085;28;19928;-87
2024/03/11 17:55:48;;;;;;;;;;;;;;;4.02;100.00;98780.56;5014251;28;20266;-80
2024/03/11 17:58:20;;;;;;;;;;;;;;;4.04;100.00;98775.25;5013091;28;19922;-87
2024/03/11 18:00:46;;;;;;;;;;;;;;;3.98;100.00;98792.88;5013983;28;19929;-85
2024/03/11 18:03:14;;;;;;;;;;;;;;;3.95;100.00;98792.13;5014746;28;20269;-89
2024/03/11 18:05:40;;;;;;;;;;;;;;;3.95;100.00;98787.75;4996113;28;19921;-88
2024/03/11 18:08:06;;;;;;;;;;;;;;;3.90;100.00;98797.53;5014683;28;19952;-87
2024/03/11 18:10:33;;;;;;;;;;;;;;;3.89;100.00;98808.06;5014802;28;19976;-88
2024/03/11 18:13:05;;;;;;;;;;;;;;;3.90;100.00;98809.78;5013746;28;19925;-92
2024/03/11 18:15:30;;;;;;;;;;;;;;;3.87;100.00;98809.88;5014889;28;20341;-90
2024/03/11 18:17:56;;;;;;;;;;;;;;;3.86;100.00;98813.38;5013554;28;20025;-88
2024/03/11 18:20:26;;;;;;;;;;;;;;;3.81;100.00;98818.78;5016050;28;19917;-91
2024/03/11 18:22:52;;;;;;;;;;;;;;;3.79;100.00;98818.81;5017571;28;19917;-86
2024/03/11 18:25:19;;;;;;;;;;;;;;;3.81;100.00;98824.00;5014332;28;19928;-85
2024/03/11 18:27:46;;;;;;;;;;;;;;;3.84;100.00;98823.91;5013213;28;19922;-84
2024/03/11 18:30:12;;;;;;;;;;;;;;;3.86;100.00;98829.13;5014189;28;19944;-86
2024/03/11 18:32:46;;;;;;;;;;;;;;;3.84;100.00;98830.94;5014296;28;20354;-90
2024/03/11 18:35:11;;;;;;;;;;;;;;;3.74;100.00;98833.81;5016334;28;19926;-84
2024/03/11 18:37:37;;;;;;;;;;;;;;;3.80;100.00;98833.66;5015257;28;19925;-92
2024/03/11 18:40:09;;;;;;;;;;;;;;;3.71;100.00;98836.53;5017379;28;20324;-84
2024/03/11 18:42:40;;;;;;;;;;;;;;;3.68;100.00;98836.63;5014715;28;19928;-83
2024/03/11 18:45:06;;;;;;;;;;;;;;;3.72;100.00;98838.25;5014244;28;19965;-83
2024/03/11 18:47:44;;;;;;;;;;;;;;;3.63;100.00;98836.75;5015185;28;19965;-92
2024/03/11 18:50:11;;;;;;;;;;;;;;;3.67;100.00;98850.66;5019088;28;19932;-81
2024/03/11 18:52:36;;;;;;;;;;;;;;;3.65;100.00;98844.56;4998121;28;20270;-90
2024/03/11 18:55:06;;;;;;;;;;;;;;;3.63;100.00;98841.16;5015004;28;19917;-91
2024/03/11 18:57:32;;;;;;;;;;;;;;;3.67;100.00;98839.28;5014990;28;19928;-89
2024/03/11 18:59:57;;;;;;;;;;;;;;;3.56;100.00;98844.88;4996337;28;20012;-83
2024/03/11 19:02:22;;;;;;;;;;;;;;;3.56;100.00;98844.88;5014283;28;19984;-82
2024/03/11 19:04:48;;;;;;;;;;;;;;;3.52;100.00;98856.31;5013272;28;19918;-83
2024/03/11 19:07:15;;;;;;;;;;;;;;;3.54;100.00;98857.13;5013895;28;19921;-85
2024/03/11 19:09:41;;;;;;;;;;;;;;;3.57;100.00;98864.91;5014382;28;19975;-89
2024/03/11 19:12:07;;;;;;;;;;;;;;;3.49;100.00;98869.50;5012330;28;19921;-89
2024/03/11 19:14:32;;;;;;;;;;;;;;;3.55;100.00;98878.03;5013310;28;19928;-91
2024/03/11 19:16:58;;;;;;;;;;;;;;;3.54;100.00;98876.34;5013519;28;19925;-92
2024/03/11 19:19:24;;;;;;;;;;;;;;;3.54;100.00;98885.94;5013500;28;19926;-93
2024/03/11 19:21:50;;;;;;;;;;;;;;;3.44;100.00;98888.81;5013079;28;19917;-91
2024/03/11 19:24:15;;;;;;;;;;;;;;;3.48;100.00;98887.00;5012859;28;19921;-84
2024/03/11 19:26:42;;;;;;;;;;;;;;;3.49;100.00;98890.47;5011554;28;19936;-91
2024/03/11 19:29:07;;;;;;;;;;;;;;;3.50;100.00;98893.03;5013133;28;19944;-90
2024/03/11 19:31:32;;;;;;;;;;;;;;;3.44;100.00;98896.69;5012837;28;19929;-83
2024/03/11 19:33:58;;;;;;;;;;;;;;;3.41;100.00;98895.91;5013221;28;19936;-91
2024/03/11 19:36:45;;;;;;;;;;;;;;;3.43;100.00;98894.09;5013049;28;20361;-87
2024/03/11 19:39:25;;;;;;;;;;;;;;;3.43;100.00;98905.47;5012101;28;20004;-84
2024/03/11 19:41:59;;;;;;;;;;;;;;;3.39;100.00;98895.09;5012348;28;19960;-83
2024/03/11 19:44:32;;;;;;;;;;;;;;;3.39;100.00;98898.56;5013227;28;19917;-88
2024/03/11 19:47:13;;;;;;;;;;;;;;;3.51;100.00;98907.88;5013196;28;20009;-88
2024/03/11 19:49:57;;;;;;;;;;;;;;;3.49;100.00;98911.41;5012951;28;19924;-85
2024/03/11 19:52:29;;;;;;;;;;;;;;;3.50;100.00;98913.16;5012926;28;19922;-88
2024/03/11 19:55:15;;;;;;;;;;;;;;;3.47;100.00;98915.84;5012461;28;19932;-88
2024/03/11 19:57:59;;;;;;;;;;;;;;;3.45;100.00;98921.97;5012102;28;20328;-87
2024/03/11 20:00:45;;;;;;;;;;;;;;;3.49;100.00;98921.91;4998410;28;19926;-85
2024/03/11 20:03:17;;;;;;;;;;;;;;;3.60;100.00;98927.69;4985997;28;20016;-83
2024/03/11 20:06:01;;;;;;;;;;;;;;;3.69;100.00;98926.59;4991983;28;20377;-83
2024/03/11 20:08:38;;;;;;;;;;;;;;;3.79;100.00;98934.13;4992484;28;19928;-84
2024/03/11 20:11:24;;;;;;;;;;;;;;;4.18;100.00;98936.47;4992651;28;20324;-88
2024/03/11 20:14:00;;;;;;;;;;;;;;;4.48;100.00;98932.94;4991845;28;19914;-84
2024/03/11 20:16:44;;;;;;;;;;;;;;;4.64;100.00;98943.81;4992502;28;19965;-84
2024/03/11 20:19:29;;;;;;;;;;;;;;;4.79;100.00;98953.81;4992700;28;19933;-86
2024/03/11 20:22:10;;;;;;;;;;;;;;;4.88;100.00;98950.03;4992044;28;19918;-87
2024/03/11 20:24:54;;;;;;;;;;;;;;;4.94;100.00;98951.59;4992596;28;20372;-86
2024/03/11 20:27:30;;;;;;;;;;;;;;;5.02;100.00;98954.81;4980027;28;19930;-87
2024/03/11 20:29:59;;;;;;;;;;;;;;;5.06;100.00;98961.72;4992310;28;19930;-86
2024/03/11 20:32:39;;;;;;;;;;;;;;;5.15;100.00;98965.78;4991655;28;19945;-87
2024/03/11 20:35:04;;;;;;;;;;;;;;;5.19;100.00;98965.63;4992782;28;19924;-90
2024/03/11 20:37:30;;;;;;;;;;;;;;;5.23;100.00;98969.88;4992245;28;19929;-87
2024/03/11 20:39:55;;;;;;;;;;;;;;;5.30;100.00;98974.88;4992803;28;20349;-84
2024/03/11 20:42:21;;;;;;;;;;;;;;;5.32;100.00;98973.09;4990872;28;20008;-80
2024/03/11 20:44:46;;;;;;;;;;;;;;;5.35;100.00;98973.84;4992493;28;19918;-81
2024/03/11 20:47:12;;;;;;;;;;;;;;;5.41;100.00;98976.25;4992557;28;19964;-82
2024/03/11 20:49:42;;;;;;;;;;;;;;;5.45;100.00;98982.25;4992212;28;19933;-82
2024/03/11 20:52:07;;;;;;;;;;;;;;;5.51;100.00;98987.31;4992451;28;19918;-83
2024/03/11 20:54:32;;;;;;;;;;;;;;;5.52;100.00;98985.53;4991901;28;19929;-83
2024/03/11 20:56:59;;;;;;;;;;;;;;;5.53;100.00;98993.34;4991089;28;20019;-82
2024/03/11 20:59:26;;;;;;;;;;;;;;;5.53;100.00;98998.59;4992165;28;19922;-83
2024/03/11 21:01:51;;;;;;;;;;;;;;;5.59;100.00;99008.91;4974908;28;19965;-88
2024/03/11 21:04:16;;;;;;;;;;;;;;;5.60;100.00;99012.38;4974518;28;20000;-89
2024/03/11 21:06:42;;;;;;;;;;;;;;;5.63;100.00;99014.91;4992407;28;19926;-87
2024/03/11 21:09:07;;;;;;;;;;;;;;;5.64;100.00;99017.50;4992170;28;19929;-84
2024/03/11 21:11:32;;;;;;;;;;;;;;;5.67;100.00;99026.19;4991367;28;19924;-86
2024/03/11 21:14:00;;;;;;;;;;;;;;;5.68;100.00;99028.78;4992135;28;19977;-87
2024/03/11 21:16:25;;;;;;;;;;;;;;;5.71;100.00;99027.78;4990169;28;20008;-85
2024/03/11 21:19:07;;;;;;;;;;;;;;;5.74;100.00;99039.06;4989789;28;20020;-86
2024/03/11 21:21:53;;;;;;;;;;;;;;;5.74;100.00;99038.19;4992715;28;19961;-82
2024/03/11 21:24:28;;;;;;;;;;;;;;;5.82;100.00;99042.28;4991545;28;20285;-85
2024/03/11 21:27:13;;;;;;;;;;;;;;;5.79;100.00;99036.25;4990986;28;19921;-86
2024/03/11 21:29:38;;;;;;;;;;;;;;;5.95;100.00;99034.81;4991834;28;19917;-86
2024/03/11 21:32:03;;;;;;;;;;;;;;;5.89;100.00;99048.19;4992163;28;19922;-88
2024/03/11 21:34:29;;;;;;;;;;;;;;;5.90;100.00;99046.41;4992556;28;19921;-89
2024/03/11 21:36:54;;;;;;;;;;;;;;;5.95;100.00;99053.22;4974593;28;20274;-87
2024/03/11 21:39:19;;;;;;;;;;;;;;;5.95;100.00;99042.72;4992105;28;20329;-85
2024/03/11 21:41:45;;;;;;;;;;;;;;;5.98;100.00;99047.91;4991044;28;19972;-88
2024/03/11 21:44:10;;;;;;;;;;;;;;;6.00;100.00;99053.09;4974208;28;19965;-86
2024/03/11 21:46:40;;;;;;;;;;;;;;;6.07;100.00;99045.84;4991823;28;19933;-87
2024/03/11 21:49:05;;;;;;;;;;;;;;;6.05;100.00;99048.53;4991942;28;19936;-85
2024/03/11 21:51:31;;;;;;;;;;;;;;;6.05;100.00;99045.03;4974825;28;19918;-87
2024/03/11 21:53:56;;;;;;;;;;;;;;;6.09;100.00;99044.84;4994057;28;19922;-87